createdAt,value
2019-03-29T00:01:10.482Z,150872.14
2019-03-29T00:03:40.152Z,150851.80
2019-03-29T00:06:10.765Z,150886.16
2019-03-29T00:08:40.490Z,150884.86
2019-03-29T00:11:10.211Z,150884.86
2019-03-29T00:13:39.882Z,150884.86
2019-03-29T00:16:09.551Z,150854.36
2019-03-29T00:18:39.219Z,150858.17
2019-03-29T00:21:08.933Z,150842.91
2019-03-29T00:23:38.608Z,150779.25
2019-03-29T00:26:08.256Z,150785.63
2019-03-29T00:28:37.922Z,150798.34
2019-03-29T00:31:07.575Z,150813.61
2019-03-29T00:33:37.239Z,150827.58
2019-03-29T00:36:07.403Z,150817.42
2019-03-29T00:38:37.056Z,150818.69
2019-03-29T00:41:06.719Z,150788.14
2019-03-29T00:43:36.370Z,150756.39
2019-03-29T00:46:06.038Z,150738.56
2019-03-29T00:48:36.094Z,150758.91
2019-03-29T00:51:05.834Z,150794.52
2019-03-29T00:53:35.929Z,150790.70
2019-03-29T00:56:05.897Z,150769.09
2019-03-29T00:58:37.136Z,150757.66
2019-03-29T01:01:06.855Z,150747.45
2019-03-29T01:03:37.118Z,150732.23
2019-03-29T01:06:07.055Z,150673.72
2019-03-29T01:08:37.939Z,150662.28
2019-03-29T01:11:07.653Z,150622.86
2019-03-29T01:13:37.461Z,150635.61
2019-03-29T01:16:07.139Z,150629.23
2019-03-29T01:18:37.952Z,150615.28
2019-03-29T01:21:08.642Z,150615.28
2019-03-29T01:23:38.312Z,150592.38
2019-03-29T01:26:07.950Z,150654.64
2019-03-29T01:28:37.952Z,150605.08
2019-03-29T01:31:08.372Z,150544.08
2019-03-29T01:33:38.018Z,150542.83
2019-03-29T01:36:07.682Z,150587.31
2019-03-29T01:38:37.434Z,150559.34
2019-03-29T01:41:07.084Z,150512.31
2019-03-29T01:43:36.731Z,150560.59
2019-03-29T01:46:06.400Z,150580.94
2019-03-29T01:48:36.112Z,150608.89
2019-03-29T01:51:05.774Z,150620.34
2019-03-29T01:53:35.422Z,150616.53
2019-03-29T01:56:05.078Z,150617.78
2019-03-29T01:58:34.756Z,150616.53
2019-03-29T02:01:04.479Z,150600.02
2019-03-29T02:03:34.142Z,150457.66
2019-03-29T02:06:03.860Z,150516.13
2019-03-29T02:08:36.138Z,150572.05
2019-03-29T02:11:06.919Z,150485.61
2019-03-29T02:13:36.598Z,150469.09
2019-03-29T02:16:06.253Z,150433.47
2019-03-29T02:18:35.931Z,150438.58
2019-03-29T02:21:05.681Z,150464.03
2019-03-29T02:23:35.397Z,150498.36
2019-03-29T02:26:05.054Z,150480.53
2019-03-29T02:28:34.724Z,150503.42
2019-03-29T02:31:04.392Z,150507.23
2019-03-29T02:33:34.045Z,150495.80
2019-03-29T02:36:03.720Z,150444.91
2019-03-29T02:38:33.509Z,150448.77
2019-03-29T02:41:03.176Z,150428.39
2019-03-29T02:43:32.830Z,150400.44
2019-03-29T02:46:02.496Z,150427.14
2019-03-29T02:48:32.147Z,150429.66
2019-03-29T02:51:04.881Z,150413.14
2019-03-29T02:53:34.993Z,150380.13
2019-03-29T02:56:04.650Z,150362.36
2019-03-29T02:58:34.311Z,150333.11
2019-03-29T03:01:04.030Z,150309.03
2019-03-29T03:03:33.676Z,150309.03
2019-03-29T03:06:03.355Z,150307.72
2019-03-29T03:08:33.283Z,150324.22
2019-03-29T03:11:03.041Z,150331.86
2019-03-29T03:13:32.708Z,150293.78
2019-03-29T03:16:02.531Z,150300.09
2019-03-29T03:18:32.202Z,150286.16
2019-03-29T03:21:01.970Z,150267.09
2019-03-29T03:23:31.575Z,150256.97
2019-03-29T03:26:01.229Z,150222.66
2019-03-29T03:28:30.878Z,150241.72
2019-03-29T03:31:00.542Z,150223.91
2019-03-29T03:33:30.196Z,150234.09
2019-03-29T03:35:59.858Z,150209.97
2019-03-29T03:38:29.512Z,150172.44
2019-03-29T03:40:59.234Z,150215.03
2019-03-29T03:43:28.895Z,149434.92
2019-03-29T03:45:58.556Z,150059.56
2019-03-29T03:48:28.263Z,149193.94
2019-03-29T03:50:58.437Z,149451.72
2019-03-29T03:53:28.238Z,150221.41
2019-03-29T03:56:00.780Z,149347.14
2019-03-29T03:58:32.276Z,149900.27
2019-03-29T04:01:02.108Z,149404.41
2019-03-29T04:03:31.769Z,150260.78
2019-03-29T04:06:01.405Z,150282.34
2019-03-29T04:08:31.073Z,150336.92
2019-03-29T04:11:00.811Z,150368.69
2019-03-29T04:13:31.927Z,150386.50
2019-03-29T04:16:01.665Z,150425.88
2019-03-29T04:18:31.309Z,150355.98
2019-03-29T04:21:02.590Z,150083.48
2019-03-29T04:23:32.239Z,149267.30
2019-03-29T04:26:01.894Z,149679.80
2019-03-29T04:28:31.564Z,149697.14
2019-03-29T04:31:01.221Z,149328.27
2019-03-29T04:33:31.893Z,149478.72
2019-03-29T04:36:01.566Z,149132.02
2019-03-29T04:38:32.353Z,148766.73
2019-03-29T04:41:02.001Z,148809.09
2019-03-29T04:43:31.653Z,150016.75
2019-03-29T04:46:01.323Z,150334.41
2019-03-29T04:48:30.965Z,149908.31
2019-03-29T04:51:01.679Z,149457.13
2019-03-29T04:53:31.330Z,149058.56
2019-03-29T04:56:01.047Z,146880.16
2019-03-29T04:58:30.782Z,144224.94
2019-03-29T05:01:00.889Z,142715.45
2019-03-29T05:03:30.540Z,144805.47
2019-03-29T05:06:00.277Z,142369.52
2019-03-29T05:08:29.931Z,141412.89
2019-03-29T05:10:59.592Z,144026.80
2019-03-29T05:13:29.249Z,144714.66
2019-03-29T05:15:58.931Z,146431.03
2019-03-29T05:18:28.650Z,144267.92
2019-03-29T05:20:58.535Z,144412.31
2019-03-29T05:23:28.189Z,147578.69
2019-03-29T05:25:57.915Z,148649.30
2019-03-29T05:28:27.579Z,150264.53
2019-03-29T05:30:57.224Z,150305.22
2019-03-29T05:33:26.896Z,148246.66
2019-03-29T05:35:56.540Z,145241.34
2019-03-29T05:38:26.205Z,147574.69
2019-03-29T05:40:55.857Z,148838.52
2019-03-29T05:43:25.523Z,146862.91
2019-03-29T05:45:55.173Z,143405.73
2019-03-29T05:48:24.829Z,146638.70
2019-03-29T05:50:55.076Z,147105.64
2019-03-29T05:53:24.792Z,146653.53
2019-03-29T05:55:54.446Z,149517.11
2019-03-29T05:58:24.129Z,150378.86
2019-03-29T06:00:53.782Z,150386.50
2019-03-29T06:03:25.349Z,150408.06
2019-03-29T06:05:55.083Z,149825.53
2019-03-29T06:08:24.739Z,150359.45
2019-03-29T06:10:54.427Z,150328.56
2019-03-29T06:13:24.082Z,150356.91
2019-03-29T06:15:53.747Z,149322.94
2019-03-29T06:18:23.405Z,149464.41
2019-03-29T06:20:53.062Z,149985.25
2019-03-29T06:23:22.799Z,127524.31
2019-03-29T06:25:52.458Z,147716.94
2019-03-29T06:28:22.128Z,146198.47
2019-03-29T06:30:51.795Z,142359.23
2019-03-29T06:33:21.525Z,143635.73
2019-03-29T06:35:53.949Z,149368.12
2019-03-29T06:38:26.226Z,150223.77
2019-03-29T06:41:02.597Z,150019.13
2019-03-29T06:43:27.344Z,150570.73
2019-03-29T06:45:57.064Z,150594.89
2019-03-29T06:48:26.730Z,150589.81
2019-03-29T06:50:56.464Z,150312.45
2019-03-29T06:53:26.132Z,150039.70
2019-03-29T06:55:59.123Z,149901.00
2019-03-29T06:58:27.177Z,150203.03
2019-03-29T07:00:56.829Z,150375.98
2019-03-29T07:03:26.493Z,150373.44
2019-03-29T07:05:56.151Z,149827.53
2019-03-29T07:08:25.814Z,150431.80
2019-03-29T07:10:55.498Z,150419.19
2019-03-29T07:13:25.223Z,150727.11
2019-03-29T07:15:54.947Z,150752.58
2019-03-29T07:18:24.619Z,150774.19
2019-03-29T07:20:54.296Z,150779.25
2019-03-29T07:23:24.981Z,150783.06
2019-03-29T07:25:56.341Z,150799.59
2019-03-29T07:28:26.009Z,150818.69
2019-03-29T07:30:55.685Z,150836.47
2019-03-29T07:33:25.345Z,150847.97
2019-03-29T07:35:55.016Z,150875.97
2019-03-29T07:38:24.670Z,150858.17
2019-03-29T07:40:54.345Z,150907.77
2019-03-29T07:43:24.231Z,150933.20
2019-03-29T07:45:53.840Z,150929.38
2019-03-29T07:48:23.509Z,150947.22
2019-03-29T07:50:53.172Z,150933.20
2019-03-29T07:53:22.846Z,150979.03
2019-03-29T07:55:52.506Z,151005.72
2019-03-29T07:58:22.174Z,151018.50
2019-03-29T08:00:51.844Z,151052.83
2019-03-29T08:03:23.455Z,151045.19
2019-03-29T08:05:52.966Z,151035.03
2019-03-29T08:08:24.619Z,151061.72
2019-03-29T08:10:54.308Z,151115.17
2019-03-29T08:13:24.040Z,151136.84
2019-03-29T08:15:53.703Z,151152.13
2019-03-29T08:18:24.903Z,151144.48
2019-03-29T08:20:54.570Z,151180.14
2019-03-29T08:23:24.230Z,151180.14
2019-03-29T08:25:53.911Z,151169.94
2019-03-29T08:28:23.641Z,151173.75
2019-03-29T08:30:53.400Z,151196.73
2019-03-29T08:33:23.057Z,151232.39
2019-03-29T08:35:52.719Z,151246.38
2019-03-29T08:38:22.398Z,151250.20
2019-03-29T08:40:52.058Z,151250.20
2019-03-29T08:43:21.730Z,151276.95
2019-03-29T08:45:51.389Z,151271.83
2019-03-29T08:48:21.066Z,151233.66
2019-03-29T08:50:50.721Z,151276.95
2019-03-29T08:53:20.457Z,151320.22
2019-03-29T08:55:50.124Z,151317.72
2019-03-29T08:58:19.911Z,151336.78
2019-03-29T09:00:49.586Z,151380.09
2019-03-29T09:03:19.309Z,151376.28
2019-03-29T09:05:50.118Z,151399.22
2019-03-29T09:08:19.852Z,151420.86
2019-03-29T09:10:49.517Z,151468.02
2019-03-29T09:13:19.351Z,151461.63
2019-03-29T09:15:49.032Z,151494.75
2019-03-29T09:18:18.693Z,151516.48
2019-03-29T09:20:48.483Z,151526.66
2019-03-29T09:23:18.159Z,151562.34
2019-03-29T09:25:47.823Z,151557.27
2019-03-29T09:28:17.495Z,151572.56
2019-03-29T09:30:47.193Z,151610.78
2019-03-29T09:33:16.840Z,151626.08
2019-03-29T09:35:46.494Z,151657.97
2019-03-29T09:38:16.227Z,151710.23
2019-03-29T09:40:56.231Z,151807.19
2019-03-29T09:43:17.270Z,151882.41
2019-03-29T09:45:46.999Z,151896.47
2019-03-29T09:48:16.663Z,151878.58
2019-03-29T09:50:50.431Z,151909.22
2019-03-29T09:53:17.857Z,151990.86
2019-03-29T09:55:47.687Z,152036.83
2019-03-29T09:58:18.586Z,152022.77
2019-03-29T10:00:49.164Z,152150.45
2019-03-29T10:03:18.817Z,152146.62
2019-03-29T10:05:48.474Z,152177.23
2019-03-29T10:08:18.139Z,152115.97
2019-03-29T10:10:47.859Z,152119.81
2019-03-29T10:13:17.570Z,152144.06
2019-03-29T10:15:47.224Z,152154.28
2019-03-29T10:18:17.883Z,152124.89
2019-03-29T10:20:47.550Z,152141.48
2019-03-29T10:23:18.540Z,152177.23
2019-03-29T10:25:48.191Z,152141.48
2019-03-29T10:28:17.857Z,152141.48
2019-03-29T10:30:47.636Z,152174.72
2019-03-29T10:33:17.305Z,152156.81
2019-03-29T10:35:52.287Z,152197.66
2019-03-29T10:38:18.909Z,152168.31
2019-03-29T10:40:48.580Z,152136.39
2019-03-29T10:43:18.245Z,152141.48
2019-03-29T10:45:47.971Z,152081.53
2019-03-29T10:48:17.639Z,152044.44
2019-03-29T10:50:47.306Z,152066.22
2019-03-29T10:53:16.968Z,152022.77
2019-03-29T10:55:46.710Z,152004.92
2019-03-29T10:58:16.356Z,152082.80
2019-03-29T11:00:46.028Z,152075.14
2019-03-29T11:03:15.681Z,152133.88
2019-03-29T11:05:45.469Z,152122.38
2019-03-29T11:08:15.146Z,152147.89
2019-03-29T11:10:44.815Z,152089.16
2019-03-29T11:13:14.944Z,152151.72
2019-03-29T11:15:44.591Z,152131.30
2019-03-29T11:18:14.260Z,152144.06
2019-03-29T11:20:43.918Z,152123.62
2019-03-29T11:23:13.707Z,152033.00
2019-03-29T11:25:43.359Z,152114.72
2019-03-29T11:28:13.092Z,152140.22
2019-03-29T11:30:44.248Z,152230.84
2019-03-29T11:33:13.978Z,152241.08
2019-03-29T11:35:43.721Z,152311.28
2019-03-29T11:38:13.462Z,152339.44
2019-03-29T11:40:43.193Z,152242.34
2019-03-29T11:43:26.074Z,152264.08
2019-03-29T11:45:44.259Z,152338.17
2019-03-29T11:48:13.998Z,152361.17
2019-03-29T11:50:43.664Z,152347.11
2019-03-29T11:53:13.310Z,152381.61
2019-03-29T11:55:42.979Z,152400.73
2019-03-29T11:58:12.626Z,152359.88
2019-03-29T12:00:44.481Z,152423.73
2019-03-29T12:03:15.042Z,152458.25
2019-03-29T12:05:44.778Z,152463.34
2019-03-29T12:08:14.604Z,152488.88
2019-03-29T12:10:44.445Z,152488.88
2019-03-29T12:13:14.351Z,152455.69
2019-03-29T12:15:44.050Z,152413.55
2019-03-29T12:18:13.670Z,152468.44
2019-03-29T12:20:43.343Z,152519.56
2019-03-29T12:23:13.008Z,152525.92
2019-03-29T12:25:42.664Z,152546.37
2019-03-29T12:28:12.330Z,152621.84
2019-03-29T12:30:42.065Z,152614.16
2019-03-29T12:33:11.724Z,152652.53
2019-03-29T12:35:42.503Z,152699.78
2019-03-29T12:38:12.173Z,152655.05
2019-03-29T12:40:45.031Z,152742.00
2019-03-29T12:43:13.240Z,152693.42
2019-03-29T12:45:42.889Z,152743.27
2019-03-29T12:48:12.545Z,152759.87
2019-03-29T12:50:42.217Z,152722.81
2019-03-29T12:53:11.883Z,152703.62
2019-03-29T12:55:41.571Z,152766.28
2019-03-29T12:58:11.231Z,152803.41
2019-03-29T13:00:41.056Z,152821.28
2019-03-29T13:03:12.225Z,152846.89
2019-03-29T13:05:41.959Z,152817.45
2019-03-29T13:08:13.152Z,152873.72
2019-03-29T13:10:42.848Z,152831.53
2019-03-29T13:13:12.543Z,152736.84
2019-03-29T13:15:42.260Z,152780.33
2019-03-29T13:18:12.071Z,152747.09
2019-03-29T13:20:41.870Z,152844.31
2019-03-29T13:23:11.521Z,152890.34
2019-03-29T13:25:41.187Z,152794.47
2019-03-29T13:28:10.887Z,152794.47
2019-03-29T13:30:42.048Z,152915.94
2019-03-29T13:33:12.355Z,152941.52
2019-03-29T13:35:44.531Z,153033.67
2019-03-29T13:38:13.388Z,153051.56
2019-03-29T13:40:43.335Z,153005.53
2019-03-29T13:43:13.467Z,153114.23
2019-03-29T13:45:43.198Z,153107.86
2019-03-29T13:48:12.918Z,153160.33
2019-03-29T13:50:42.577Z,153197.44
2019-03-29T13:53:12.219Z,153249.97
2019-03-29T13:55:41.890Z,153289.66
2019-03-29T13:58:11.551Z,153299.88
2019-03-29T14:00:41.234Z,153420.28
2019-03-29T14:03:11.039Z,153329.31
2019-03-29T14:05:41.796Z,153331.89
2019-03-29T14:08:11.452Z,153386.95
2019-03-29T14:10:41.126Z,153447.16
2019-03-29T14:13:10.779Z,153613.70
2019-03-29T14:15:40.436Z,153645.75
2019-03-29T14:18:10.106Z,153763.62
2019-03-29T14:20:39.766Z,153953.39
2019-03-29T14:23:09.431Z,154091.92
2019-03-29T14:25:39.130Z,154184.34
2019-03-29T14:28:10.186Z,154100.89
2019-03-29T14:30:39.879Z,154195.89
2019-03-29T14:33:11.031Z,154220.27
2019-03-29T14:35:40.679Z,154370.44
2019-03-29T14:38:10.356Z,154781.38
2019-03-29T14:40:40.014Z,155830.91
2019-03-29T14:43:11.479Z,156633.67
2019-03-29T14:45:41.698Z,156878.75
2019-03-29T14:48:11.938Z,157382.11
2019-03-29T14:50:42.168Z,157445.44
2019-03-29T14:53:12.409Z,157777.41
2019-03-29T14:55:42.336Z,158229.78
2019-03-29T14:58:12.356Z,158324.19
2019-03-29T15:00:48.700Z,158717.44
2019-03-29T15:03:19.100Z,158610.06
2019-03-29T15:05:49.027Z,158819.66
2019-03-29T15:08:18.965Z,158602.30
2019-03-29T15:10:48.888Z,158730.36
2019-03-29T15:13:18.829Z,158687.66
2019-03-29T15:15:48.767Z,158749.78
2019-03-29T15:18:18.695Z,158666.97
2019-03-29T15:20:53.593Z,158767.86
2019-03-29T15:23:20.297Z,158889.52
2019-03-29T15:25:50.293Z,158516.91
2019-03-29T15:28:20.259Z,158864.94
2019-03-29T15:30:52.353Z,158998.27
2019-03-29T15:33:21.844Z,158861.06
2019-03-29T15:35:51.792Z,158936.17
2019-03-29T15:38:21.720Z,159094.05
2019-03-29T15:40:51.674Z,158739.45
2019-03-29T15:43:21.605Z,158897.28
2019-03-29T15:45:51.539Z,158149.62
2019-03-29T15:48:21.891Z,158022.95
2019-03-29T15:50:51.841Z,158709.67
2019-03-29T15:53:21.783Z,158285.42
2019-03-29T15:55:51.711Z,158251.78
2019-03-29T15:58:21.672Z,158172.91
2019-03-29T16:00:51.654Z,158593.25
2019-03-29T16:03:21.597Z,157938.91
2019-03-29T16:05:51.610Z,157909.20
2019-03-29T16:08:21.537Z,158070.78
2019-03-29T16:10:51.475Z,158397.91
2019-03-29T16:13:21.415Z,158493.66
2019-03-29T16:15:51.346Z,158147.03
2019-03-29T16:18:21.282Z,158066.94
2019-03-29T16:20:51.288Z,158095.33
2019-03-29T16:23:21.289Z,158072.09
2019-03-29T16:25:51.226Z,157911.81
2019-03-29T16:28:21.136Z,157686.97
2019-03-29T16:30:51.067Z,157635.30
2019-03-29T16:33:20.988Z,157645.66
2019-03-29T16:35:50.948Z,157251.70
2019-03-29T16:38:20.867Z,156766.53
2019-03-29T16:40:51.110Z,156307.58
2019-03-29T16:43:21.341Z,155474.41
2019-03-29T16:45:51.574Z,154859.75
2019-03-29T16:48:21.231Z,154587.39
2019-03-29T16:50:51.034Z,154372.97
2019-03-29T16:53:20.773Z,154134.28
2019-03-29T16:55:50.422Z,153963.67
2019-03-29T16:58:20.104Z,153867.50
2019-03-29T17:00:49.839Z,153698.28
2019-03-29T17:03:19.812Z,153591.89
2019-03-29T17:05:49.479Z,153525.31
2019-03-29T17:08:19.148Z,153397.17
2019-03-29T17:10:48.812Z,153346.00
2019-03-29T17:13:18.481Z,153307.56
2019-03-29T17:16:01.071Z,153256.34
2019-03-29T17:18:29.082Z,153197.44
2019-03-29T17:20:51.992Z,153112.97
2019-03-29T17:23:21.777Z,153036.20
2019-03-29T17:25:51.369Z,153043.87
2019-03-29T17:28:21.029Z,152992.66
2019-03-29T17:30:52.340Z,152968.34
2019-03-29T17:33:22.534Z,152955.56
2019-03-29T17:35:52.356Z,152908.27
2019-03-29T17:38:22.009Z,152872.45
2019-03-29T17:40:53.181Z,152895.48
2019-03-29T17:43:22.835Z,152872.45
2019-03-29T17:45:54.372Z,152831.53
2019-03-29T17:48:24.020Z,152797.00
2019-03-29T17:50:53.681Z,152827.70
2019-03-29T17:53:23.338Z,152797.00
2019-03-29T17:55:53.077Z,152788.06
2019-03-29T17:58:23.737Z,152761.14
2019-03-29T18:00:53.759Z,152740.69
2019-03-29T18:03:23.424Z,152697.25
2019-03-29T18:05:54.318Z,152619.25
2019-03-29T18:08:23.970Z,152644.84
2019-03-29T18:10:53.637Z,152626.94
2019-03-29T18:13:23.368Z,152523.41
2019-03-29T18:15:53.030Z,152574.53
2019-03-29T18:18:22.683Z,152557.92
2019-03-29T18:20:52.511Z,152563.03
2019-03-29T18:23:24.815Z,152555.34
2019-03-29T18:25:53.532Z,152506.80
2019-03-29T18:28:23.196Z,152493.98
2019-03-29T18:30:52.849Z,152471.02
2019-03-29T18:33:23.907Z,152430.14
2019-03-29T18:35:53.831Z,152384.12
2019-03-29T18:38:24.242Z,152417.37
2019-03-29T18:40:53.889Z,152396.91
2019-03-29T18:43:23.548Z,152394.38
2019-03-29T18:45:53.215Z,152371.38
2019-03-29T18:48:22.866Z,152357.34
2019-03-29T18:50:52.535Z,152336.91
2019-03-29T18:53:22.191Z,152330.50
2019-03-29T18:55:51.854Z,152315.13
2019-03-29T18:58:21.517Z,152330.50
2019-03-29T19:00:51.195Z,152334.34
2019-03-29T19:03:20.854Z,152307.45
2019-03-29T19:05:51.837Z,152294.69
2019-03-29T19:08:21.502Z,152283.19
2019-03-29T19:10:51.824Z,152264.08
2019-03-29T19:13:21.482Z,152258.94
2019-03-29T19:15:51.149Z,152225.75
2019-03-29T19:18:20.815Z,152233.41
2019-03-29T19:20:50.479Z,152195.13
2019-03-29T19:23:20.136Z,152165.73
2019-03-29T19:25:49.960Z,152149.16
2019-03-29T19:28:19.613Z,152112.14
2019-03-29T19:30:49.292Z,152091.72
2019-03-29T19:33:18.943Z,152068.73
2019-03-29T19:35:48.649Z,152067.47
2019-03-29T19:38:18.267Z,152054.67
2019-03-29T19:40:48.192Z,151978.11
2019-03-29T19:43:17.948Z,151970.44
2019-03-29T19:45:47.623Z,151957.69
2019-03-29T19:48:17.260Z,151956.44
2019-03-29T19:50:47.257Z,151952.61
2019-03-29T19:53:16.985Z,151930.89
2019-03-29T19:55:46.631Z,151891.37
2019-03-29T19:58:16.397Z,151898.98
2019-03-29T20:00:47.267Z,151895.22
2019-03-29T20:03:16.943Z,151886.23
2019-03-29T20:05:46.665Z,151896.47
2019-03-29T20:08:16.394Z,151872.23
2019-03-29T20:10:46.039Z,151868.41
2019-03-29T20:13:15.704Z,151865.83
2019-03-29T20:15:45.485Z,151839.08
2019-03-29T20:18:15.223Z,151831.42
2019-03-29T20:20:44.869Z,151848.00
2019-03-29T20:23:14.523Z,151821.20
2019-03-29T20:25:44.257Z,151823.77
2019-03-29T20:28:13.992Z,151799.53
2019-03-29T20:30:43.655Z,151770.17
2019-03-29T20:33:13.615Z,151785.44
2019-03-29T20:35:44.963Z,151767.59
2019-03-29T20:38:14.626Z,151779.09
2019-03-29T20:40:44.275Z,151758.69
2019-03-29T20:43:13.957Z,151757.38
2019-03-29T20:45:43.605Z,151768.86
2019-03-29T20:48:14.983Z,151752.28
2019-03-29T20:50:44.683Z,151728.06
2019-03-29T20:53:14.337Z,151725.53
2019-03-29T20:55:44.081Z,151743.38
2019-03-29T20:58:13.712Z,151738.28
2019-03-29T21:00:43.381Z,151738.28
2019-03-29T21:03:13.030Z,151705.14
2019-03-29T21:05:43.975Z,151684.70
2019-03-29T21:08:14.731Z,151669.44
2019-03-29T21:10:55.019Z,151636.25
2019-03-29T21:13:15.792Z,151632.47
2019-03-29T21:15:45.443Z,151608.25
2019-03-29T21:18:17.563Z,151580.22
2019-03-29T21:20:47.415Z,151589.13
2019-03-29T21:23:17.106Z,151599.30
2019-03-29T21:25:46.759Z,151594.22
2019-03-29T21:28:16.421Z,151594.22
2019-03-29T21:30:47.737Z,151585.30
2019-03-29T21:33:17.407Z,151540.69
2019-03-29T21:35:47.068Z,151516.48
2019-03-29T21:38:16.734Z,151503.70
2019-03-29T21:40:46.387Z,151513.92
2019-03-29T21:43:16.135Z,151525.39
2019-03-29T21:45:45.837Z,151527.97
2019-03-29T21:48:28.468Z,151508.83
2019-03-29T21:50:46.871Z,151531.78
2019-03-29T21:53:16.521Z,151478.19
2019-03-29T21:55:46.265Z,151499.88
2019-03-29T21:58:15.931Z,151507.56
2019-03-29T22:00:45.604Z,151480.75
2019-03-29T22:03:15.259Z,151496.05
2019-03-29T22:05:44.988Z,151513.92
2019-03-29T22:08:17.844Z,151489.66
2019-03-29T22:10:46.033Z,151515.22
2019-03-29T22:13:17.992Z,151503.70
2019-03-29T22:15:47.658Z,151497.31
2019-03-29T22:18:17.311Z,151490.97
2019-03-29T22:20:47.196Z,151468.02
2019-03-29T22:23:17.646Z,151465.44
2019-03-29T22:25:47.295Z,151461.63
2019-03-29T22:28:16.957Z,151471.84
2019-03-29T22:30:46.618Z,151460.37
2019-03-29T22:33:16.280Z,151462.94
2019-03-29T22:35:45.926Z,151465.44
2019-03-29T22:38:17.198Z,151448.89
2019-03-29T22:40:47.260Z,151436.16
2019-03-29T22:43:18.550Z,151366.11
2019-03-29T22:45:48.598Z,151419.59
2019-03-29T22:48:18.265Z,151390.31
2019-03-29T22:50:47.926Z,151424.69
2019-03-29T22:53:17.579Z,151417.03
2019-03-29T22:55:47.314Z,151397.97
2019-03-29T22:58:16.985Z,151417.03
2019-03-29T23:00:51.238Z,151386.48
2019-03-29T23:03:21.163Z,151399.22
2019-03-29T23:05:50.824Z,151406.87
2019-03-29T23:08:20.507Z,151406.87
2019-03-29T23:10:50.176Z,151394.14
2019-03-29T23:13:21.267Z,151389.00
2019-03-29T23:15:51.693Z,151364.81
2019-03-29T23:18:21.372Z,151331.69
2019-03-29T23:20:51.045Z,151331.69
2019-03-29T23:23:20.703Z,151341.91
2019-03-29T23:25:50.374Z,151350.81
2019-03-29T23:28:20.027Z,151341.91
2019-03-29T23:30:49.741Z,151332.95
2019-03-29T23:33:19.354Z,151332.95
2019-03-29T23:35:49.031Z,151275.66
2019-03-29T23:38:18.748Z,151276.95
2019-03-29T23:40:48.400Z,151292.20
2019-03-29T23:43:18.068Z,151243.81
2019-03-29T23:45:47.711Z,151264.19
2019-03-29T23:48:17.375Z,151229.83
2019-03-29T23:50:47.222Z,151250.20
2019-03-29T23:53:16.835Z,151215.80
2019-03-29T23:55:46.571Z,151211.97
2019-03-29T23:58:16.244Z,151192.91
